Time;durP1;ratioP1;P1;durP2;ratioP2;P2;SDS_P1;SDS_P2;PMS_P1;PMS_P2;Temp;Humidity;BMP_temperature;BMP_pressure;BME280_temperature;BME280_humidity;BME280_pressure;Samples;Min_cycle;Max_cycle;Signal;HPM_P1;HPM_P2
2021/12/06 00:01:10;;;;;;;0.00;0.00;;;5.60;89.20;;;;;;3947310;30;20074;-63
2021/12/06 00:03:47;;;;;;;0.00;0.00;;;5.60;88.80;;;;;;3947634;30;20051;-63
2021/12/06 00:06:12;;;;;;;0.00;0.00;;;5.60;88.50;;;;;;3947423;30;20105;-65
2021/12/06 00:08:34;;;;;;;0.00;0.00;;;5.60;88.50;;;;;;3947213;30;20044;-63
2021/12/06 00:10:57;;;;;;;0.00;0.00;;;5.60;88.40;;;;;;3935067;30;20598;-64
2021/12/06 00:13:22;;;;;;;0.00;0.00;;;5.50;88.20;;;;;;3946703;30;20051;-63
2021/12/06 00:15:48;;;;;;;0.00;0.00;;;5.50;88.30;;;;;;3947460;30;20442;-63
2021/12/06 00:18:10;;;;;;;0.00;0.00;;;5.50;88.10;;;;;;3947511;30;20143;-64
2021/12/06 00:20:32;;;;;;;0.00;0.00;;;5.40;87.20;;;;;;3946852;30;20059;-64
2021/12/06 00:22:55;;;;;;;0.00;0.00;;;5.40;87.30;;;;;;3947495;30;20048;-64
2021/12/06 00:25:17;;;;;;;0.00;0.00;;;5.50;86.90;;;;;;3947365;30;20441;-64
2021/12/06 00:27:40;;;;;;;0.00;0.00;;;5.50;86.80;;;;;;3947378;30;20051;-64
2021/12/06 00:30:04;;;;;;;0.00;0.00;;;5.50;86.10;;;;;;3922757;30;20064;-64
2021/12/06 00:32:26;;;;;;;0.00;0.00;;;5.50;85.70;;;;;;3946610;30;20052;-64
2021/12/06 00:34:51;;;;;;;0.00;0.00;;;5.50;85.80;;;;;;3947209;30;20087;-64
2021/12/06 00:37:29;;;;;;;0.00;0.00;;;5.50;85.80;;;;;;3935245;30;20070;-64
2021/12/06 00:39:58;;;;;;;0.00;0.00;;;5.50;85.90;;;;;;3947194;30;20453;-64
2021/12/06 00:42:23;;;;;;;0.00;0.00;;;5.50;86.00;;;;;;3946546;30;20048;-64
2021/12/06 00:44:46;;;;;;;0.00;0.00;;;5.50;86.10;;;;;;3947018;30;20047;-64
2021/12/06 00:47:08;;;;;;;0.00;0.00;;;5.50;86.10;;;;;;3934701;30;20044;-64
2021/12/06 00:49:32;;;;;;;0.00;0.00;;;5.50;86.20;;;;;;3947187;30;20078;-64
2021/12/06 00:51:54;;;;;;;0.00;0.00;;;5.60;86.20;;;;;;3946831;30;20140;-63
2021/12/06 00:54:17;;;;;;;0.00;0.00;;;5.60;86.00;;;;;;3934367;30;20439;-64
2021/12/06 00:56:40;;;;;;;0.00;0.00;;;5.50;85.90;;;;;;3934552;30;20510;-63
2021/12/06 00:59:04;;;;;;;0.00;0.00;;;5.50;86.30;;;;;;3934651;30;20052;-64
2021/12/06 01:01:27;;;;;;;0.00;0.00;;;5.40;86.20;;;;;;3946703;30;20052;-64
2021/12/06 01:03:50;;;;;;;0.00;0.00;;;5.40;86.20;;;;;;3947012;30;20123;-63
2021/12/06 01:06:13;;;;;;;0.00;0.00;;;5.50;86.10;;;;;;3946626;30;20063;-65
2021/12/06 01:08:37;;;;;;;0.00;0.00;;;5.40;86.10;;;;;;3946760;30;20063;-62
2021/12/06 01:11:00;;;;;;;0.00;0.00;;;5.20;86.80;;;;;;3946766;30;20078;-63
2021/12/06 01:13:22;;;;;;;0.00;0.00;;;5.20;87.40;;;;;;3922388;30;20048;-63
2021/12/06 01:15:46;;;;;;;0.00;0.00;;;5.10;87.60;;;;;;3946864;30;20055;-62
2021/12/06 01:18:12;;;;;;;0.00;0.00;;;5.00;87.80;;;;;;3946869;30;20071;-63
2021/12/06 01:20:41;;;;;;;0.00;0.00;;;5.10;87.60;;;;;;3946313;30;20078;-63
2021/12/06 01:23:07;;;;;;;0.00;0.00;;;5.30;87.70;;;;;;3946999;29;20051;-63
2021/12/06 01:40:58;;;;;;;0.00;0.00;;;5.50;86.60;;;;;;3919893;30;20059;-63
2021/12/06 01:43:21;;;;;;;0.00;0.00;;;5.50;86.50;;;;;;3932490;30;20067;-63
2021/12/06 01:45:46;;;;;;;0.00;0.00;;;5.50;86.50;;;;;;3932363;30;20056;-63
2021/12/06 01:48:08;;;;;;;0.00;0.00;;;5.40;86.20;;;;;;3920117;30;20107;-63
2021/12/06 01:50:31;;;;;;;0.00;0.00;;;5.30;86.30;;;;;;3932005;30;20052;-63
2021/12/06 01:52:57;;;;;;;0.00;0.00;;;5.20;86.50;;;;;;3932547;30;20604;-63
2021/12/06 01:55:33;;;;;;;0.00;0.00;;;5.00;86.90;;;;;;3907874;30;20063;-65
2021/12/06 01:57:56;;;;;;;0.00;0.00;;;5.00;87.30;;;;;;3920144;30;20057;-64
2021/12/06 02:00:20;;;;;;;0.00;0.00;;;5.00;87.40;;;;;;3931832;30;20101;-64
2021/12/06 02:02:48;;;;;;;0.00;0.00;;;5.00;87.70;;;;;;3907791;30;20159;-64
2021/12/06 02:05:17;;;;;;;0.00;0.00;;;5.00;87.90;;;;;;3932149;30;20045;-64
2021/12/06 02:07:39;;;;;;;0.00;0.00;;;4.90;88.40;;;;;;3932252;30;20139;-64
2021/12/06 02:10:04;;;;;;;0.00;0.00;;;4.90;89.10;;;;;;3932074;30;20060;-64
2021/12/06 02:12:30;;;;;;;0.00;0.00;;;4.90;89.60;;;;;;3931435;30;20059;-64
2021/12/06 02:15:02;;;;;;;0.00;0.00;;;5.10;89.50;;;;;;3907852;30;20068;-64
2021/12/06 02:17:33;;;;;;;0.00;0.00;;;5.00;90.00;;;;;;3919684;30;20117;-64
2021/12/06 02:20:08;;;;;;;0.00;0.00;;;4.90;90.30;;;;;;3931932;30;20059;-63
2021/12/06 02:22:33;;;;;;;0.00;0.00;;;4.90;90.40;;;;;;3919113;30;20056;-63
2021/12/06 02:24:56;;;;;;;0.00;0.00;;;5.00;90.40;;;;;;3919713;30;20049;-64
2021/12/06 02:27:21;;;;;;;0.00;0.00;;;5.00;90.40;;;;;;3931997;30;20052;-63
2021/12/06 02:29:46;;;;;;;0.00;0.00;;;4.90;90.70;;;;;;3931964;30;20052;-64
2021/12/06 02:32:11;;;;;;;0.00;0.00;;;4.90;90.80;;;;;;3907006;30;20441;-64
2021/12/06 02:34:33;;;;;;;0.00;0.00;;;4.90;90.90;;;;;;3918987;30;20139;-64
2021/12/06 02:36:56;;;;;;;0.00;0.00;;;4.90;91.00;;;;;;3919265;30;20044;-64
2021/12/06 02:39:23;;;;;;;0.00;0.00;;;4.80;91.20;;;;;;3919412;30;20057;-64
2021/12/06 02:41:49;;;;;;;0.00;0.00;;;4.80;91.30;;;;;;3907010;30;20057;-63
2021/12/06 02:44:11;;;;;;;0.00;0.00;;;4.90;91.20;;;;;;3919351;30;20192;-63
2021/12/06 02:46:34;;;;;;;0.00;0.00;;;4.90;91.10;;;;;;3931536;30;20448;-64
2021/12/06 02:48:56;;;;;;;0.00;0.00;;;4.80;91.30;;;;;;3919316;30;20052;-63
2021/12/06 02:51:19;;;;;;;0.00;0.00;;;4.70;91.50;;;;;;3919148;30;20113;-63
2021/12/06 02:53:41;;;;;;;0.00;0.00;;;4.70;91.70;;;;;;3931379;30;20067;-64
2021/12/06 02:56:18;;;;;;;0.00;0.00;;;4.60;91.80;;;;;;3919230;30;20067;-63
2021/12/06 03:01:09;;;;;;;0.00;0.00;;;4.70;91.70;;;;;;3923066;30;20177;-63
2021/12/06 03:03:32;;;;;;;0.00;0.00;;;4.70;91.50;;;;;;3948472;30;20142;-64
2021/12/06 03:05:55;;;;;;;0.00;0.00;;;4.70;91.60;;;;;;3936284;30;20522;-64
2021/12/06 03:08:33;;;;;;;0.00;0.00;;;4.70;91.80;;;;;;3960466;30;20063;-64
2021/12/06 03:10:56;;;;;;;0.00;0.00;;;4.70;91.70;;;;;;3948352;30;20078;-63
2021/12/06 03:13:19;;;;;;;0.00;0.00;;;4.60;91.80;;;;;;3948561;30;20055;-63
2021/12/06 03:15:42;;;;;;;0.00;0.00;;;4.60;91.80;;;;;;3960839;30;20065;-63
2021/12/06 03:18:04;;;;;;;0.00;0.00;;;4.50;91.80;;;;;;3960768;30;20459;-63
2021/12/06 03:20:26;;;;;;;0.00;0.00;;;4.50;92.00;;;;;;3920666;30;20096;-63
2021/12/06 03:22:49;;;;;;;0.00;0.00;;;4.40;92.00;;;;;;3918918;30;20475;-62
2021/12/06 03:25:16;;;;;;;0.00;0.00;;;4.40;92.10;;;;;;3931298;30;20411;-63
2021/12/06 03:27:52;;;;;;;0.00;0.00;;;4.60;92.00;;;;;;3935397;30;20057;-63
2021/12/06 03:30:16;;;;;;;0.00;0.00;;;4.60;91.80;;;;;;3918311;30;20056;-64
2021/12/06 03:32:39;;;;;;;0.00;0.00;;;4.60;91.80;;;;;;3906693;30;20442;-64
2021/12/06 03:35:06;;;;;;;0.00;0.00;;;4.70;91.70;;;;;;3918839;30;20052;-63
2021/12/06 03:37:28;;;;;;;0.00;0.00;;;4.70;91.60;;;;;;3918708;30;20110;-63
2021/12/06 03:39:51;;;;;;;0.00;0.00;;;4.70;91.60;;;;;;3920988;30;20134;-63
2021/12/06 03:42:24;;;;;;;0.00;0.00;;;4.70;91.60;;;;;;3920415;30;20059;-64
2021/12/06 03:44:48;;;;;;;0.00;0.00;;;4.70;91.60;;;;;;3945622;30;20121;-63
2021/12/06 03:47:20;;;;;;;0.00;0.00;;;4.70;91.60;;;;;;3923069;30;20044;-64
2021/12/06 03:49:43;;;;;;;0.00;0.00;;;4.70;91.50;;;;;;3918435;30;20089;-64
2021/12/06 03:52:07;;;;;;;0.00;0.00;;;4.70;91.40;;;;;;3919653;30;20459;-63
2021/12/06 03:54:30;;;;;;;0.00;0.00;;;4.60;91.50;;;;;;3934899;30;20506;-63
2021/12/06 03:56:53;;;;;;;0.00;0.00;;;4.60;91.50;;;;;;3943001;30;20098;-63
2021/12/06 03:59:16;;;;;;;0.00;0.00;;;4.70;91.60;;;;;;3933422;30;20086;-63
2021/12/06 04:01:39;;;;;;;0.00;0.00;;;4.80;91.40;;;;;;3918172;30;20566;-63
2021/12/06 04:04:06;;;;;;;0.00;0.00;;;4.90;91.30;;;;;;3918352;30;20106;-63
2021/12/06 04:06:29;;;;;;;0.00;0.00;;;5.00;91.10;;;;;;3917860;30;20102;-63
2021/12/06 04:08:52;;;;;;;0.00;0.00;;;5.00;90.90;;;;;;3918307;30;20060;-64
2021/12/06 04:11:15;;;;;;;0.00;0.00;;;4.90;91.10;;;;;;3917980;30;20091;-63
2021/12/06 04:13:40;;;;;;;0.00;0.00;;;4.70;91.40;;;;;;3918191;30;20048;-63
2021/12/06 04:16:03;;;;;;;0.00;0.00;;;4.70;91.40;;;;;;3918259;30;20102;-63
2021/12/06 04:18:29;;;;;;;0.00;0.00;;;4.50;91.70;;;;;;3917761;30;20114;-63
2021/12/06 04:20:53;;;;;;;0.00;0.00;;;4.50;91.80;;;;;;3917887;30;20091;-63
2021/12/06 04:23:15;;;;;;;0.00;0.00;;;4.60;91.80;;;;;;3918205;30;20045;-63
2021/12/06 04:25:39;;;;;;;0.00;0.00;;;4.50;91.90;;;;;;3918160;30;20063;-63
2021/12/06 04:28:06;;;;;;;0.00;0.00;;;4.40;92.10;;;;;;3930449;30;20113;-63
2021/12/06 04:30:29;;;;;;;0.00;0.00;;;4.50;92.40;;;;;;3917616;30;20056;-65
2021/12/06 04:32:55;;;;;;;0.00;0.00;;;4.40;92.20;;;;;;3917752;30;20056;-65
2021/12/06 04:35:18;;;;;;;0.00;0.00;;;4.40;92.40;;;;;;3917912;30;20052;-65
2021/12/06 04:37:42;;;;;;;0.00;0.00;;;4.40;92.50;;;;;;3917923;30;20080;-65
2021/12/06 04:40:06;;;;;;;0.00;0.00;;;4.40;92.40;;;;;;3917990;30;20052;-65
2021/12/06 04:42:28;;;;;;;0.00;0.00;;;4.40;92.50;;;;;;3917283;30;20135;-65
2021/12/06 04:44:51;;;;;;;0.00;0.00;;;4.40;92.50;;;;;;3917763;30;20048;-64
2021/12/06 04:47:14;;;;;;;0.00;0.00;;;4.30;92.60;;;;;;3917712;30;20127;-63
2021/12/06 04:49:37;;;;;;;0.00;0.00;;;4.30;92.70;;;;;;3930108;30;20058;-65
2021/12/06 04:52:02;;;;;;;0.00;0.00;;;4.20;92.80;;;;;;3917629;30;20063;-64
2021/12/06 04:54:32;;;;;;;0.00;0.00;;;4.10;93.00;;;;;;3917466;30;20547;-65
2021/12/06 04:57:10;;;;;;;0.00;0.00;;;4.10;92.90;;;;;;3917937;30;20079;-64
2021/12/06 04:59:44;;;;;;;0.00;0.00;;;4.20;93.00;;;;;;3917290;30;20052;-62
2021/12/06 05:02:15;;;;;;;0.00;0.00;;;4.20;92.80;;;;;;3918998;30;20088;-64
2021/12/06 05:04:43;;;;;;;0.00;0.00;;;4.30;92.70;;;;;;3931830;30;20044;-64
2021/12/06 05:07:13;;;;;;;0.00;0.00;;;4.20;92.70;;;;;;3932278;30;20133;-63
2021/12/06 05:09:38;;;;;;;0.00;0.00;;;4.30;92.90;;;;;;3920103;30;20048;-63
2021/12/06 05:12:02;;;;;;;0.00;0.00;;;4.10;92.80;;;;;;3919828;30;20122;-63
2021/12/06 05:14:26;;;;;;;0.00;0.00;;;4.10;93.00;;;;;;3931853;30;20570;-64
2021/12/06 05:16:49;;;;;;;0.00;0.00;;;4.10;92.90;;;;;;3919959;30;20059;-63
2021/12/06 05:19:14;;;;;;;0.00;0.00;;;4.10;92.80;;;;;;3919998;30;20052;-63
2021/12/06 05:21:37;;;;;;;0.00;0.00;;;4.00;93.10;;;;;;3919547;30;20065;-63
2021/12/06 05:23:59;;;;;;;0.00;0.00;;;4.10;92.80;;;;;;3919894;30;20396;-63
2021/12/06 05:26:22;;;;;;;0.00;0.00;;;4.20;92.70;;;;;;3931783;30;20060;-64
2021/12/06 05:28:46;;;;;;;0.00;0.00;;;4.20;92.60;;;;;;3932059;30;20054;-64
2021/12/06 05:31:20;;;;;;;0.00;0.00;;;4.20;92.50;;;;;;3932119;30;20086;-64
2021/12/06 05:33:50;;;;;;;0.00;0.00;;;4.10;92.60;;;;;;3919801;30;20142;-65
2021/12/06 05:36:13;;;;;;;0.00;0.00;;;4.10;92.70;;;;;;3920129;30;20052;-64
2021/12/06 05:38:36;;;;;;;0.00;0.00;;;4.00;92.80;;;;;;3931555;30;20585;-63
2021/12/06 05:41:00;;;;;;;0.00;0.00;;;4.10;92.90;;;;;;3931796;30;20139;-64
2021/12/06 05:43:24;;;;;;;0.00;0.00;;;4.10;92.80;;;;;;3932217;30;20492;-64
2021/12/06 05:45:46;;;;;;;0.00;0.00;;;4.10;92.80;;;;;;3931652;30;20596;-64
2021/12/06 05:48:09;;;;;;;0.00;0.00;;;4.10;92.90;;;;;;3931901;30;20470;-63
2021/12/06 05:50:31;;;;;;;0.00;0.00;;;4.10;92.80;;;;;;3931578;30;20052;-64
2021/12/06 05:52:54;;;;;;;0.00;0.00;;;4.00;92.80;;;;;;3931785;30;20129;-64
2021/12/06 05:55:17;;;;;;;0.00;0.00;;;4.10;92.90;;;;;;3931936;30;20082;-63
2021/12/06 05:57:40;;;;;;;0.00;0.00;;;4.20;92.70;;;;;;3931859;30;20094;-64
2021/12/06 06:00:09;;;;;;;0.00;0.00;;;4.20;92.60;;;;;;3931986;30;20595;-63
2021/12/06 06:02:33;;;;;;;0.00;0.00;;;4.30;92.60;;;;;;3931088;30;20518;-64
2021/12/06 06:04:56;;;;;;;0.00;0.00;;;4.30;92.40;;;;;;3919866;30;20538;-63
2021/12/06 06:07:18;;;;;;;0.00;0.00;;;4.30;92.40;;;;;;3931793;30;20135;-63
2021/12/06 06:09:41;;;;;;;0.00;0.00;;;4.30;92.30;;;;;;3919587;30;20110;-64
2021/12/06 06:12:04;;;;;;;0.00;0.00;;;4.30;92.20;;;;;;3934332;30;20139;-63
2021/12/06 06:14:26;;;;;;;0.00;0.00;;;4.30;92.30;;;;;;3933897;30;20067;-63
2021/12/06 06:16:53;;;;;;;0.00;0.00;;;4.30;92.30;;;;;;3934306;30;20052;-63
2021/12/06 06:19:18;;;;;;;0.00;0.00;;;4.20;92.40;;;;;;3934401;30;20607;-63
2021/12/06 06:21:41;;;;;;;0.00;0.00;;;4.40;92.30;;;;;;3933761;30;20101;-64
2021/12/06 06:24:04;;;;;;;0.00;0.00;;;4.40;92.20;;;;;;3934301;30;20056;-63
2021/12/06 06:26:26;;;;;;;0.00;0.00;;;4.20;92.30;;;;;;3934007;30;20762;-63
2021/12/06 06:28:49;;;;;;;0.00;0.00;;;4.20;92.50;;;;;;3934244;30;20059;-63
2021/12/06 06:31:11;;;;;;;0.00;0.00;;;4.30;92.40;;;;;;3933916;30;20055;-63
2021/12/06 06:33:34;;;;;;;0.00;0.00;;;4.20;92.40;;;;;;3919618;30;20056;-62
2021/12/06 06:35:56;;;;;;;0.00;0.00;;;4.20;92.50;;;;;;3931955;30;20630;-62
2021/12/06 06:38:20;;;;;;;0.00;0.00;;;4.30;92.40;;;;;;3931513;30;20064;-63
2021/12/06 06:40:43;;;;;;;0.00;0.00;;;4.30;92.20;;;;;;3931659;30;20544;-63
2021/12/06 06:43:05;;;;;;;0.00;0.00;;;4.20;92.40;;;;;;3931866;30;20059;-63
2021/12/06 06:45:28;;;;;;;0.00;0.00;;;4.30;92.40;;;;;;3931625;30;20627;-64
2021/12/06 06:47:51;;;;;;;0.00;0.00;;;4.20;92.30;;;;;;3919176;30;20643;-63
2021/12/06 06:50:14;;;;;;;0.00;0.00;;;4.10;92.40;;;;;;3930993;30;20070;-64
2021/12/06 06:52:37;;;;;;;0.00;0.00;;;4.20;92.40;;;;;;3931400;30;20048;-63
2021/12/06 06:55:00;;;;;;;0.00;0.00;;;4.10;92.40;;;;;;3931494;30;20090;-63
2021/12/06 06:57:22;;;;;;;0.00;0.00;;;4.00;92.70;;;;;;3931646;30;20052;-63
2021/12/06 06:59:45;;;;;;;0.00;0.00;;;4.10;92.60;;;;;;3931304;30;20151;-64
2021/12/06 07:02:08;;;;;;;0.00;0.00;;;4.10;92.50;;;;;;3931248;30;20052;-64
2021/12/06 07:04:31;;;;;;;0.00;0.00;;;4.20;92.30;;;;;;3931240;30;20056;-63
2021/12/06 07:06:54;;;;;;;0.00;0.00;;;4.10;92.40;;;;;;3931413;30;20098;-63
2021/12/06 07:09:18;;;;;;;0.00;0.00;;;4.10;92.30;;;;;;3919052;30;20095;-63
2021/12/06 07:11:44;;;;;;;0.00;0.00;;;4.10;92.40;;;;;;3931073;30;20426;-63
2021/12/06 07:14:06;;;;;;;0.00;0.00;;;4.10;92.30;;;;;;3931269;30;20056;-63
2021/12/06 07:16:29;;;;;;;0.00;0.00;;;4.10;92.40;;;;;;3931020;30;20058;-63
2021/12/06 07:18:53;;;;;;;0.00;0.00;;;4.10;92.40;;;;;;3918967;30;20053;-63
2021/12/06 07:21:15;;;;;;;0.00;0.00;;;4.10;92.40;;;;;;3930375;30;20087;-64
2021/12/06 07:23:38;;;;;;;0.00;0.00;;;4.20;92.40;;;;;;3930793;30;20052;-64
2021/12/06 07:26:01;;;;;;;0.00;0.00;;;4.20;92.50;;;;;;3930995;30;20044;-64
2021/12/06 07:28:23;;;;;;;0.00;0.00;;;4.10;92.40;;;;;;3918751;30;20056;-63
2021/12/06 07:30:46;;;;;;;0.00;0.00;;;4.10;92.40;;;;;;3918447;30;20045;-63
2021/12/06 07:33:09;;;;;;;0.00;0.00;;;4.20;92.40;;;;;;3931027;30;20535;-64
2021/12/06 07:35:32;;;;;;;0.00;0.00;;;4.10;92.30;;;;;;3930970;30;20106;-63
2021/12/06 07:37:54;;;;;;;0.00;0.00;;;4.10;92.50;;;;;;3931107;30;20058;-63
2021/12/06 07:40:17;;;;;;;0.00;0.00;;;4.10;92.50;;;;;;3930819;30;20091;-64
2021/12/06 07:42:40;;;;;;;0.00;0.00;;;4.10;92.50;;;;;;3930838;30;20569;-63
2021/12/06 07:45:05;;;;;;;0.00;0.00;;;4.20;92.70;;;;;;3930970;30;20076;-63
2021/12/06 07:47:27;;;;;;;0.00;0.00;;;4.20;92.40;;;;;;3930720;30;20083;-63
2021/12/06 07:49:49;;;;;;;0.00;0.00;;;4.30;92.20;;;;;;3930768;30;20056;-63
2021/12/06 07:52:21;;;;;;;0.00;0.00;;;4.20;92.20;;;;;;3929986;30;20480;-63
2021/12/06 07:54:44;;;;;;;0.00;0.00;;;4.10;92.30;;;;;;3930924;30;20468;-59
2021/12/06 07:57:07;;;;;;;0.00;0.00;;;4.20;92.30;;;;;;3930620;30;20044;-60
2021/12/06 07:59:30;;;;;;;0.00;0.00;;;4.30;92.10;;;;;;3930617;30;20143;-68
2021/12/06 08:01:52;;;;;;;0.00;0.00;;;4.50;92.00;;;;;;3929944;30;20135;-70
2021/12/06 08:04:16;;;;;;;0.00;0.00;;;4.50;91.80;;;;;;3918200;30;20098;-61
2021/12/06 08:06:39;;;;;;;0.00;0.00;;;4.50;91.60;;;;;;3930425;30;20059;-64
2021/12/06 08:09:02;;;;;;;0.00;0.00;;;4.60;91.50;;;;;;3930610;30;20044;-64
2021/12/06 08:11:25;;;;;;;0.00;0.00;;;4.70;91.40;;;;;;3930223;30;20134;-66
2021/12/06 08:13:51;;;;;;;0.00;0.00;;;4.80;91.30;;;;;;3930390;30;20052;-65
2021/12/06 08:16:19;;;;;;;0.00;0.00;;;4.90;91.10;;;;;;3930160;30;20052;-63
2021/12/06 08:18:44;;;;;;;0.00;0.00;;;4.90;90.90;;;;;;3930533;30;20068;-59
2021/12/06 08:21:07;;;;;;;0.00;0.00;;;4.90;90.70;;;;;;3942531;30;20066;-63
2021/12/06 08:23:31;;;;;;;0.00;0.00;;;4.80;90.50;;;;;;3917921;30;20517;-64
2021/12/06 08:25:55;;;;;;;0.00;0.00;;;4.90;90.50;;;;;;3918442;30;20060;-63
2021/12/06 08:28:18;;;;;;;0.00;0.00;;;4.90;90.40;;;;;;3917871;30;20203;-61
2021/12/06 08:30:41;;;;;;;0.00;0.00;;;4.90;90.20;;;;;;3930010;30;20092;-63
2021/12/06 08:33:07;;;;;;;0.00;0.00;;;4.90;90.10;;;;;;3942030;30;20055;-67
2021/12/06 08:35:30;;;;;;;0.00;0.00;;;5.00;90.00;;;;;;3930145;30;20108;-67
2021/12/06 08:37:55;;;;;;;0.00;0.00;;;5.00;89.80;;;;;;3918149;30;20113;-67
2021/12/06 08:40:17;;;;;;;0.00;0.00;;;5.10;89.60;;;;;;3929865;30;20077;-67
2021/12/06 08:42:41;;;;;;;0.00;0.00;;;5.10;89.50;;;;;;3929763;30;20062;-61
2021/12/06 08:45:05;;;;;;;0.00;0.00;;;5.20;89.30;;;;;;3930214;30;20131;-67
2021/12/06 08:47:28;;;;;;;0.00;0.00;;;5.10;88.70;;;;;;3942313;30;20052;-67
2021/12/06 08:49:51;;;;;;;0.00;0.00;;;5.10;89.00;;;;;;3929810;30;20147;-61
2021/12/06 08:52:14;;;;;;;0.00;0.00;;;5.20;89.00;;;;;;3929241;30;20146;-68
2021/12/06 08:54:40;;;;;;;0.00;0.00;;;5.20;89.10;;;;;;3918184;30;20139;-67
2021/12/06 08:57:04;;;;;;;0.00;0.00;;;5.30;89.20;;;;;;3929921;30;20105;-65
2021/12/06 08:59:27;;;;;;;0.00;0.00;;;5.30;89.10;;;;;;3930028;30;20087;-67
2021/12/06 09:01:50;;;;;;;0.00;0.00;;;5.40;89.20;;;;;;3929795;30;20052;-68
2021/12/06 09:04:37;;;;;;;0.00;0.00;;;5.40;89.20;;;;;;3929549;30;20060;-66
2021/12/06 09:07:00;;;;;;;0.00;0.00;;;5.50;89.20;;;;;;3930073;30;20044;-67
2021/12/06 09:09:23;;;;;;;0.00;0.00;;;5.50;89.30;;;;;;3929858;30;20051;-67
2021/12/06 09:11:46;;;;;;;0.00;0.00;;;5.50;89.00;;;;;;3929667;30;20080;-67
2021/12/06 09:14:09;;;;;;;0.00;0.00;;;5.50;88.90;;;;;;3929755;30;20151;-64
2021/12/06 09:16:32;;;;;;;0.00;0.00;;;5.60;88.90;;;;;;3917401;30;20427;-68
2021/12/06 09:18:55;;;;;;;0.00;0.00;;;5.60;88.60;;;;;;3930014;30;20071;-62
2021/12/06 09:21:21;;;;;;;0.00;0.00;;;5.50;88.50;;;;;;3929423;30;20056;-58
2021/12/06 09:23:45;;;;;;;0.00;0.00;;;5.50;88.80;;;;;;3929705;30;20117;-58
2021/12/06 09:26:08;;;;;;;0.00;0.00;;;5.60;88.80;;;;;;3929692;30;20056;-59
2021/12/06 09:28:31;;;;;;;0.00;0.00;;;5.70;88.50;;;;;;3929335;30;20056;-59
2021/12/06 09:30:54;;;;;;;0.00;0.00;;;5.60;88.40;;;;;;3929734;30;20086;-63
2021/12/06 09:33:18;;;;;;;0.00;0.00;;;5.50;88.80;;;;;;3929469;30;20105;-62
2021/12/06 09:35:44;;;;;;;0.00;0.00;;;5.60;88.50;;;;;;3917791;30;20056;-66
2021/12/06 09:38:08;;;;;;;0.00;0.00;;;5.70;88.10;;;;;;3929865;30;20060;-67
2021/12/06 09:40:32;;;;;;;0.00;0.00;;;5.80;87.50;;;;;;3929382;30;20096;-68
2021/12/06 09:42:57;;;;;;;0.00;0.00;;;5.70;86.90;;;;;;3929607;30;20124;-67
2021/12/06 09:45:23;;;;;;;0.00;0.00;;;5.70;86.50;;;;;;3931361;30;20048;-67
2021/12/06 09:47:51;;;;;;;0.00;0.00;;;5.70;86.40;;;;;;3932525;30;20056;-67
2021/12/06 09:50:13;;;;;;;0.00;0.00;;;5.70;86.20;;;;;;3932014;30;20139;-68
2021/12/06 09:52:36;;;;;;;0.00;0.00;;;5.80;86.00;;;;;;3932394;30;20453;-67
2021/12/06 09:54:59;;;;;;;0.00;0.00;;;5.80;85.90;;;;;;3932496;30;20071;-68
2021/12/06 09:57:21;;;;;;;0.00;0.00;;;5.80;85.70;;;;;;3920430;30;20045;-68
2021/12/06 09:59:45;;;;;;;0.00;0.00;;;5.90;85.50;;;;;;3932495;30;20056;-66
2021/12/06 10:02:12;;;;;;;0.00;0.00;;;6.00;84.90;;;;;;3929254;30;20159;-65
2021/12/06 10:04:39;;;;;;;0.00;0.00;;;6.10;85.70;;;;;;3917388;30;20053;-68
2021/12/06 10:07:02;;;;;;;0.00;0.00;;;6.10;85.00;;;;;;3930092;30;20200;-67
2021/12/06 10:09:25;;;;;;;0.00;0.00;;;6.20;85.10;;;;;;3917733;30;20494;-68
2021/12/06 10:11:49;;;;;;;0.00;0.00;;;6.20;85.20;;;;;;3929666;30;20126;-68
2021/12/06 10:14:15;;;;;;;0.00;0.00;;;6.20;85.10;;;;;;3929444;30;20060;-68
2021/12/06 10:16:39;;;;;;;0.00;0.00;;;6.10;84.40;;;;;;3917703;30;20523;-67
2021/12/06 10:19:02;;;;;;;0.00;0.00;;;6.10;84.80;;;;;;3917445;30;20049;-67
2021/12/06 10:21:27;;;;;;;0.00;0.00;;;6.20;84.90;;;;;;3917240;30;20463;-68
2021/12/06 10:23:50;;;;;;;0.00;0.00;;;6.30;84.70;;;;;;3917344;30;20080;-67
2021/12/06 10:26:17;;;;;;;0.00;0.00;;;6.30;84.60;;;;;;3929229;30;20483;-65
2021/12/06 10:28:42;;;;;;;0.00;0.00;;;6.30;84.50;;;;;;3917197;30;20052;-67
2021/12/06 10:31:09;;;;;;;0.00;0.00;;;6.20;84.30;;;;;;3919564;30;20167;-67
2021/12/06 10:33:37;;;;;;;0.00;0.00;;;6.30;84.60;;;;;;3931757;30;20068;-68
2021/12/06 10:36:06;;;;;;;0.00;0.00;;;6.30;84.60;;;;;;3944159;30;20051;-67
2021/12/06 10:38:33;;;;;;;0.00;0.00;;;6.20;84.70;;;;;;3931411;30;20437;-67
2021/12/06 10:41:04;;;;;;;0.00;0.00;;;6.30;84.40;;;;;;3931648;30;20094;-67
2021/12/06 10:43:27;;;;;;;0.00;0.00;;;6.30;84.70;;;;;;3931671;30;20075;-67
2021/12/06 10:45:57;;;;;;;0.00;0.00;;;6.30;84.60;;;;;;3931621;30;20466;-66
2021/12/06 10:48:29;;;;;;;0.00;0.00;;;6.40;84.60;;;;;;3919311;30;20058;-67
2021/12/06 10:50:51;;;;;;;0.00;0.00;;;6.50;84.40;;;;;;3931377;30;20048;-66
2021/12/06 10:53:15;;;;;;;0.00;0.00;;;6.60;84.10;;;;;;3931816;30;20410;-66
2021/12/06 10:55:41;;;;;;;0.00;0.00;;;6.60;83.80;;;;;;3919630;30;20652;-67
2021/12/06 10:58:06;;;;;;;0.00;0.00;;;6.60;83.60;;;;;;3931579;30;20139;-69
2021/12/06 11:01:06;;;;;;;0.00;0.00;;;6.60;83.70;;;;;;3930829;30;20129;-67
2021/12/06 11:03:36;;;;;;;0.00;0.00;;;6.60;83.60;;;;;;3931325;30;20122;-67
2021/12/06 11:06:08;;;;;;;0.00;0.00;;;6.70;83.60;;;;;;3931366;30;20068;-64
2021/12/06 11:08:35;;;;;;;0.00;0.00;;;6.60;83.50;;;;;;3930964;30;20109;-67
2021/12/06 11:11:00;;;;;;;0.00;0.00;;;6.60;83.50;;;;;;3931121;30;20060;-67
2021/12/06 11:13:31;;;;;;;0.00;0.00;;;6.50;83.20;;;;;;3931231;30;20049;-68
2021/12/06 11:16:14;;;;;;;;;;;6.50;83.20;;;;;;3931706;30;20134;-67
2021/12/06 11:18:59;;;;;;;0.00;0.00;;;6.50;83.10;;;;;;3931026;30;19926;-67
2021/12/06 11:21:27;;;;;;;0.00;0.00;;;6.40;82.70;;;;;;3930963;30;20127;-67
2021/12/06 11:24:21;;;;;;;0.00;0.00;;;6.30;82.60;;;;;;3930992;30;20056;-67
2021/12/06 11:27:08;;;;;;;0.00;0.00;;;6.40;83.00;;;;;;3930744;30;20154;-64
2021/12/06 11:29:38;;;;;;;0.00;0.00;;;6.40;83.20;;;;;;3943564;30;20060;-67
2021/12/06 11:32:06;;;;;;;0.00;0.00;;;6.50;83.20;;;;;;3930940;30;20088;-68
2021/12/06 11:34:54;;;;;;;0.00;0.00;;;6.50;83.20;;;;;;3930289;30;20085;-66
2021/12/06 11:37:19;;;;;;;0.00;0.00;;;6.50;83.00;;;;;;3930813;30;20058;-67
2021/12/06 11:39:43;;;;;;;0.00;0.00;;;6.40;83.30;;;;;;3931032;30;20052;-67
2021/12/06 11:42:08;;;;;;;0.00;0.00;;;6.40;83.10;;;;;;3930611;30;20664;-67
2021/12/06 11:44:34;;;;;;;0.00;0.00;;;6.30;82.70;;;;;;3930553;30;20091;-66
2021/12/06 11:47:07;;;;;;;0.00;0.00;;;6.30;82.80;;;;;;3930869;30;20131;-67
2021/12/06 11:49:34;;;;;;;0.00;0.00;;;6.40;82.80;;;;;;3930718;30;20068;-59
2021/12/06 11:51:57;;;;;;;0.00;0.00;;;6.40;82.60;;;;;;3930651;30;20477;-60
2021/12/06 11:54:21;;;;;;;0.00;0.00;;;6.20;82.30;;;;;;3930359;30;20423;-58
2021/12/06 11:56:48;;;;;;;0.00;0.00;;;6.30;82.40;;;;;;3930715;30;20044;-59
2021/12/06 11:59:12;;;;;;;0.00;0.00;;;6.40;82.50;;;;;;3918776;30;20505;-59
2021/12/06 12:01:38;;;;;;;0.00;0.00;;;6.40;82.20;;;;;;3930384;30;20060;-60
2021/12/06 12:04:08;;;;;;;0.00;0.00;;;6.50;82.10;;;;;;3930382;30;20052;-59
2021/12/06 12:06:40;;;;;;;0.00;0.00;;;6.60;82.20;;;;;;3918832;30;20644;-58
2021/12/06 12:09:21;;;;;;;0.00;0.00;;;6.60;82.20;;;;;;3929759;30;20056;-58
2021/12/06 12:12:20;;;;;;;0.00;0.00;;;6.60;81.90;;;;;;3930220;30;20075;-58
2021/12/06 12:14:50;;;;;;;0.00;0.00;;;6.50;82.20;;;;;;3930062;30;20056;-58
2021/12/06 12:17:35;;;;;;;0.00;0.00;;;6.50;82.50;;;;;;3930489;30;20060;-58
2021/12/06 12:20:00;;;;;;;0.00;0.00;;;6.50;82.60;;;;;;3930303;30;20044;-59
2021/12/06 12:22:26;;;;;;;0.00;0.00;;;6.40;82.50;;;;;;3929806;30;20091;-60
2021/12/06 12:24:53;;;;;;;0.00;0.00;;;6.40;82.80;;;;;;3942717;30;20055;-56
2021/12/06 12:29:42;;;;;;;0.00;0.00;;;6.40;83.00;;;;;;3930334;30;20114;-59
2021/12/06 12:32:06;;;;;;;0.00;0.00;;;6.40;83.20;;;;;;3942511;30;20495;-67
2021/12/06 12:34:33;;;;;;;0.00;0.00;;;6.50;83.20;;;;;;3941982;30;20147;-67
2021/12/06 12:36:56;;;;;;;0.00;0.00;;;6.60;82.80;;;;;;3930091;30;20120;-67
2021/12/06 12:39:20;;;;;;;0.00;0.00;;;6.80;82.50;;;;;;3930219;30;20298;-67
2021/12/06 12:41:58;;;;;;;0.00;0.00;;;7.00;82.20;;;;;;3929954;30;20131;-67
2021/12/06 12:44:21;;;;;;;0.00;0.00;;;7.10;81.80;;;;;;3929709;30;20060;-68
2021/12/06 12:46:46;;;;;;;0.00;0.00;;;7.20;81.70;;;;;;3930114;30;20090;-68
2021/12/06 12:49:18;;;;;;;0.00;0.00;;;7.30;81.30;;;;;;3917846;30;20056;-67
2021/12/06 12:51:51;;;;;;;0.00;0.00;;;7.40;80.80;;;;;;3929835;30;20059;-66
2021/12/06 12:54:28;;;;;;;0.00;0.00;;;7.30;80.10;;;;;;3929580;30;20494;-66
2021/12/06 12:57:14;;;;;;;0.00;0.00;;;7.20;80.10;;;;;;3929999;30;20056;-68
2021/12/06 12:59:45;;;;;;;0.00;0.00;;;7.20;80.10;;;;;;3929988;30;20064;-68
2021/12/06 13:02:28;;;;;;;0.00;0.00;;;7.30;79.80;;;;;;3929521;30;20051;-69
2021/12/06 13:05:00;;;;;;;0.00;0.00;;;7.30;79.20;;;;;;3941884;30;20056;-66
2021/12/06 13:07:27;;;;;;;0.00;0.00;;;7.30;79.30;;;;;;3930050;30;20652;-67
2021/12/06 13:09:49;;;;;;;0.00;0.00;;;7.30;79.30;;;;;;3929838;30;20060;-67